createdAt,value
2019-03-22T00:01:56.620Z,10.00
2019-03-22T00:04:25.532Z,10.00
2019-03-22T00:06:54.404Z,10.00
2019-03-22T00:09:25.624Z,10.00
2019-03-22T00:11:54.513Z,10.00
2019-03-22T00:14:23.416Z,10.00
2019-03-22T00:16:52.625Z,10.00
2019-03-22T00:19:21.484Z,10.00
2019-03-22T00:21:50.371Z,10.00
2019-03-22T00:24:21.766Z,10.00
2019-03-22T00:26:50.635Z,9.90
2019-03-22T00:29:23.303Z,9.90
2019-03-22T00:31:55.176Z,10.00
2019-03-22T00:34:24.058Z,10.00
2019-03-22T00:36:52.940Z,10.10
2019-03-22T00:39:23.446Z,10.10
2019-03-22T00:41:53.408Z,10.10
2019-03-22T00:44:22.310Z,10.00
2019-03-22T00:46:53.954Z,10.00
2019-03-22T00:49:24.005Z,10.00
2019-03-22T00:51:52.906Z,10.00
2019-03-22T00:54:22.709Z,10.00
2019-03-22T00:56:52.879Z,10.00
2019-03-22T00:59:21.755Z,9.90
2019-03-22T01:01:53.376Z,9.90
2019-03-22T01:04:22.260Z,9.80
2019-03-22T01:06:52.603Z,9.80
2019-03-22T01:09:26.481Z,9.80
2019-03-22T01:11:54.960Z,9.80
2019-03-22T01:14:23.863Z,9.80
2019-03-22T01:16:53.802Z,9.80
2019-03-22T01:19:30.102Z,9.70
2019-03-22T01:21:58.988Z,9.80
2019-03-22T01:24:27.980Z,9.80
2019-03-22T01:26:56.887Z,9.80
2019-03-22T01:29:25.810Z,9.90
2019-03-22T01:31:54.667Z,9.90
2019-03-22T01:34:23.552Z,9.80
2019-03-22T01:36:52.974Z,9.80
2019-03-22T01:39:21.840Z,9.80
2019-03-22T01:41:53.366Z,9.70
2019-03-22T01:47:11.419Z,9.60
2019-03-22T01:49:40.325Z,9.70
2019-03-22T01:52:10.654Z,9.70
2019-03-22T01:54:39.526Z,9.70
2019-03-22T01:57:08.477Z,9.60
2019-03-22T01:59:38.782Z,9.60
2019-03-22T02:02:09.167Z,9.70
2019-03-22T02:04:39.589Z,9.70
2019-03-22T02:07:08.479Z,9.70
2019-03-22T02:09:40.355Z,9.60
2019-03-22T02:12:11.065Z,9.70
2019-03-22T02:14:39.935Z,9.60
2019-03-22T02:17:10.409Z,9.60
2019-03-22T02:19:39.333Z,9.60
2019-03-22T02:22:08.201Z,9.70
2019-03-22T02:24:42.348Z,9.70
2019-03-22T02:27:12.627Z,9.70
2019-03-22T02:29:44.568Z,9.60
2019-03-22T02:32:13.502Z,9.60
2019-03-22T02:34:43.997Z,9.60
2019-03-22T02:37:12.865Z,9.60
2019-03-22T02:39:41.971Z,9.60
2019-03-22T02:42:10.998Z,9.60
2019-03-22T02:44:39.873Z,9.60
2019-03-22T02:47:08.723Z,9.60
2019-03-22T02:49:37.683Z,9.60
2019-03-22T02:52:06.547Z,9.60
2019-03-22T02:54:35.455Z,9.50
2019-03-22T02:57:04.480Z,9.50
2019-03-22T02:59:38.906Z,9.50
2019-03-22T03:02:07.917Z,9.50
2019-03-22T03:04:41.323Z,9.50
2019-03-22T03:07:11.734Z,9.50
2019-03-22T03:09:42.163Z,9.50
2019-03-22T03:12:13.063Z,9.50
2019-03-22T03:15:03.692Z,9.50
2019-03-22T03:17:35.650Z,9.50
2019-03-22T03:20:13.637Z,9.50
2019-03-22T03:22:42.502Z,9.50
2019-03-22T03:25:14.089Z,9.50
2019-03-22T03:27:43.068Z,9.50
2019-03-22T03:30:24.139Z,9.50
2019-03-22T03:32:53.014Z,9.50
2019-03-22T03:35:21.891Z,9.50
2019-03-22T03:37:53.116Z,9.50
2019-03-22T03:40:23.464Z,9.50
2019-03-22T03:42:52.307Z,9.40
2019-03-22T03:45:31.800Z,9.40
2019-03-22T03:48:04.700Z,9.40
2019-03-22T03:50:33.573Z,9.50
2019-03-22T03:53:02.457Z,9.40
2019-03-22T03:55:32.185Z,9.40
2019-03-22T03:58:01.073Z,9.30
2019-03-22T04:00:29.977Z,9.40
2019-03-22T04:03:00.358Z,9.50
2019-03-22T04:05:31.250Z,9.40
2019-03-22T04:07:59.803Z,9.40
2019-03-22T04:10:31.517Z,9.50
2019-03-22T04:13:03.528Z,9.50
2019-03-22T04:15:32.757Z,9.50
2019-03-22T04:18:01.686Z,9.50
2019-03-22T04:20:31.870Z,9.50
2019-03-22T04:23:00.709Z,9.40
2019-03-22T04:25:29.594Z,9.50
2019-03-22T04:27:59.723Z,9.40
2019-03-22T04:30:48.024Z,9.40
2019-03-22T04:33:23.153Z,9.40
2019-03-22T04:35:52.092Z,9.30
2019-03-22T04:38:21.011Z,9.30
2019-03-22T04:40:49.897Z,9.30
2019-03-22T04:43:18.829Z,9.30
2019-03-22T04:45:49.465Z,9.30
2019-03-22T04:48:21.275Z,9.30
2019-03-22T04:50:51.813Z,9.30
2019-03-22T04:53:31.378Z,9.20
2019-03-22T04:56:03.512Z,9.30
2019-03-22T04:58:35.520Z,9.30
2019-03-22T05:01:05.188Z,9.30
2019-03-22T05:03:35.166Z,9.30
2019-03-22T05:06:05.816Z,9.30
2019-03-22T05:08:37.809Z,9.30
2019-03-22T05:11:08.817Z,9.30
2019-03-22T05:13:40.908Z,9.30
2019-03-22T05:16:12.278Z,9.30
2019-03-22T05:18:45.800Z,9.20
2019-03-22T05:21:16.542Z,9.20
2019-03-22T05:23:47.422Z,9.20
2019-03-22T05:26:19.401Z,9.20
2019-03-22T05:28:49.094Z,9.10
2019-03-22T05:31:23.519Z,9.10
2019-03-22T05:33:52.630Z,9.10
2019-03-22T05:36:22.363Z,9.20
2019-03-22T05:38:51.266Z,9.10
2019-03-22T05:41:20.183Z,9.20
2019-03-22T05:43:49.052Z,9.20
2019-03-22T05:46:17.950Z,9.20
2019-03-22T05:48:46.888Z,9.20
2019-03-22T05:51:16.814Z,9.20
2019-03-22T05:53:47.227Z,9.20
2019-03-22T05:56:17.592Z,9.20
2019-03-22T05:58:46.497Z,9.30
2019-03-22T06:01:16.577Z,9.20
2019-03-22T06:03:49.588Z,9.20
2019-03-22T06:06:18.478Z,9.20
2019-03-22T06:08:47.316Z,9.20
2019-03-22T06:11:18.036Z,9.30
2019-03-22T06:13:46.932Z,9.30
2019-03-22T06:16:15.795Z,9.30
2019-03-22T06:18:44.741Z,9.40
2019-03-22T06:21:15.102Z,9.40
2019-03-22T06:23:44.271Z,9.30
2019-03-22T06:26:13.218Z,9.30
2019-03-22T06:28:42.114Z,9.30
2019-03-22T06:31:10.961Z,9.30
2019-03-22T06:33:39.878Z,9.30
2019-03-22T06:36:09.696Z,9.30
2019-03-22T06:38:47.399Z,9.30
2019-03-22T06:41:19.017Z,9.30
2019-03-22T06:43:47.898Z,9.30
2019-03-22T06:46:18.224Z,9.30
2019-03-22T06:48:53.274Z,9.20
2019-03-22T06:51:22.172Z,9.20
2019-03-22T06:54:10.487Z,9.20
2019-03-22T06:56:39.360Z,9.30
2019-03-22T06:59:08.239Z,9.30
2019-03-22T07:01:37.166Z,9.30
2019-03-22T07:04:06.042Z,9.30
2019-03-22T07:06:34.914Z,9.20
2019-03-22T07:09:08.285Z,9.20
2019-03-22T07:11:37.203Z,9.30
2019-03-22T07:14:08.591Z,9.30
2019-03-22T07:16:37.464Z,9.40
2019-03-22T07:19:06.358Z,9.40
2019-03-22T07:21:44.996Z,9.40
2019-03-22T07:24:19.078Z,9.40
2019-03-22T07:26:45.268Z,9.40
2019-03-22T07:29:14.229Z,9.40
2019-03-22T07:31:44.761Z,9.40
2019-03-22T07:34:17.476Z,9.40
2019-03-22T07:39:52.828Z,9.50
2019-03-22T07:42:24.841Z,9.40
2019-03-22T07:45:10.620Z,9.40
2019-03-22T07:47:45.689Z,9.40
2019-03-22T07:50:14.794Z,9.40
2019-03-22T07:52:46.173Z,9.40
2019-03-22T07:55:17.269Z,9.40
2019-03-22T07:57:46.095Z,9.40
2019-03-22T08:00:29.894Z,9.50
2019-03-22T08:02:49.041Z,9.60
2019-03-22T08:05:20.257Z,9.60
2019-03-22T08:07:50.229Z,9.70
2019-03-22T08:10:19.150Z,9.70
2019-03-22T08:12:48.032Z,9.80
2019-03-22T08:15:28.682Z,9.90
2019-03-22T08:17:57.645Z,9.80
2019-03-22T08:20:28.534Z,9.90
2019-03-22T08:22:57.232Z,9.90
2019-03-22T08:25:27.459Z,10.00
2019-03-22T08:27:56.366Z,10.00
2019-03-22T08:30:26.910Z,10.10
2019-03-22T08:32:55.808Z,10.00
2019-03-22T08:35:24.698Z,10.10
2019-03-22T08:37:53.616Z,10.10
2019-03-22T08:40:23.419Z,10.20
2019-03-22T08:42:52.282Z,10.10
2019-03-22T08:45:21.163Z,10.10
2019-03-22T08:47:51.595Z,10.20
2019-03-22T08:50:20.464Z,10.20
2019-03-22T08:52:49.318Z,10.20
2019-03-22T08:55:19.702Z,10.30
2019-03-22T08:57:48.599Z,10.30
2019-03-22T09:00:17.722Z,10.30
2019-03-22T09:02:49.762Z,10.40
2019-03-22T09:05:17.166Z,10.40
2019-03-22T09:07:46.059Z,10.50
2019-03-22T09:10:15.504Z,10.50
2019-03-22T09:12:44.382Z,10.50
2019-03-22T09:15:13.517Z,10.50
2019-03-22T09:17:42.539Z,10.60
2019-03-22T09:20:11.833Z,10.60
2019-03-22T09:22:40.733Z,10.80
2019-03-22T09:25:11.248Z,10.90
2019-03-22T09:27:41.351Z,11.00
2019-03-22T09:30:14.832Z,11.00
2019-03-22T09:32:43.758Z,11.10
2019-03-22T09:35:12.853Z,11.20
2019-03-22T09:37:42.184Z,11.30
2019-03-22T09:40:11.504Z,11.40
2019-03-22T09:42:41.346Z,11.60
2019-03-22T09:45:13.971Z,11.70
2019-03-22T09:47:44.768Z,11.70
2019-03-22T09:50:14.271Z,11.80
2019-03-22T09:52:45.111Z,11.90
2019-03-22T09:55:14.844Z,11.90
2019-03-22T09:57:43.758Z,11.90
2019-03-22T10:00:30.591Z,11.90
2019-03-22T10:02:59.603Z,11.90
2019-03-22T10:05:28.598Z,11.80
2019-03-22T10:07:57.614Z,11.90
2019-03-22T10:10:27.018Z,12.00
2019-03-22T10:12:56.079Z,12.10
2019-03-22T10:15:26.807Z,12.20
2019-03-22T10:17:55.713Z,12.30
2019-03-22T10:20:24.678Z,12.40
2019-03-22T10:22:53.573Z,12.40
2019-03-22T10:25:24.342Z,12.40
2019-03-22T10:30:41.716Z,12.40
2019-03-22T10:33:22.673Z,12.30
2019-03-22T10:35:43.689Z,12.30
2019-03-22T10:38:16.199Z,12.30
2019-03-22T10:40:43.209Z,12.20
2019-03-22T10:43:12.134Z,12.20
2019-03-22T10:45:41.219Z,12.20
2019-03-22T10:48:11.725Z,12.10
2019-03-22T10:50:40.782Z,12.10
2019-03-22T10:53:09.890Z,12.10
2019-03-22T10:55:38.895Z,12.10
2019-03-22T10:58:20.326Z,12.10
2019-03-22T11:00:38.547Z,12.00
2019-03-22T11:03:07.576Z,12.00
2019-03-22T11:05:38.175Z,12.00
2019-03-22T11:08:07.086Z,12.10
2019-03-22T11:10:36.105Z,12.10
2019-03-22T11:13:05.172Z,12.10
2019-03-22T11:15:34.076Z,12.20
2019-03-22T11:18:05.844Z,12.20
2019-03-22T11:20:34.746Z,12.40
2019-03-22T11:23:05.897Z,12.50
2019-03-22T11:25:34.303Z,12.60
2019-03-22T11:28:03.975Z,12.70
2019-03-22T11:30:32.960Z,12.60
2019-03-22T11:33:01.871Z,12.50
2019-03-22T11:35:30.853Z,12.50
2019-03-22T11:37:59.702Z,12.40
2019-03-22T11:40:28.676Z,12.40
2019-03-22T11:42:57.583Z,12.30
2019-03-22T11:45:26.721Z,12.40
2019-03-22T11:47:55.693Z,12.20
2019-03-22T11:50:26.344Z,12.20
2019-03-22T11:52:55.251Z,12.20
2019-03-22T11:55:24.154Z,12.10
2019-03-22T11:57:56.927Z,12.10
2019-03-22T12:00:26.582Z,12.10
2019-03-22T12:02:55.728Z,12.00
2019-03-22T12:05:24.924Z,12.10
2019-03-22T12:07:53.913Z,12.10
2019-03-22T12:10:23.078Z,12.30
2019-03-22T12:12:51.992Z,12.40
2019-03-22T12:15:26.836Z,12.50
2019-03-22T12:17:55.844Z,12.60
2019-03-22T12:20:25.218Z,12.70
2019-03-22T12:22:54.136Z,12.80
2019-03-22T12:25:25.207Z,12.80
2019-03-22T12:27:54.223Z,12.80
2019-03-22T12:30:27.296Z,12.80
2019-03-22T12:32:56.353Z,12.90
2019-03-22T12:35:25.319Z,13.00
2019-03-22T12:37:54.483Z,12.90
2019-03-22T12:40:23.916Z,12.90
2019-03-22T12:42:52.903Z,12.90
2019-03-22T12:45:27.363Z,12.90
2019-03-22T12:47:58.646Z,12.90
2019-03-22T12:50:27.682Z,12.90
2019-03-22T12:52:58.712Z,12.80
2019-03-22T12:55:27.773Z,12.80
2019-03-22T12:57:56.707Z,12.80
2019-03-22T13:00:28.625Z,13.00
2019-03-22T13:02:57.744Z,13.20
2019-03-22T13:05:26.780Z,13.20
2019-03-22T13:07:58.896Z,13.10
2019-03-22T13:10:28.792Z,13.10
2019-03-22T13:12:59.317Z,13.10
2019-03-22T13:15:29.832Z,13.10
2019-03-22T13:17:58.913Z,13.10
2019-03-22T13:20:28.040Z,13.20
2019-03-22T13:22:56.970Z,13.20
2019-03-22T13:25:26.032Z,13.10
2019-03-22T13:27:57.788Z,13.20
2019-03-22T13:30:40.325Z,13.20
2019-03-22T13:33:10.145Z,13.20
2019-03-22T13:35:40.217Z,13.20
2019-03-22T13:38:09.199Z,13.20
2019-03-22T13:40:38.085Z,13.30
2019-03-22T13:43:08.456Z,13.40
2019-03-22T13:45:38.676Z,13.20
2019-03-22T13:48:10.663Z,13.20
2019-03-22T13:50:42.350Z,13.10
2019-03-22T13:53:11.285Z,13.00
2019-03-22T13:55:40.176Z,13.00
2019-03-22T13:58:11.934Z,12.90
2019-03-22T14:00:40.929Z,12.90
2019-03-22T14:03:09.902Z,12.90
2019-03-22T14:05:41.439Z,12.80
2019-03-22T14:08:10.360Z,12.80
2019-03-22T14:10:39.243Z,12.70
2019-03-22T14:13:10.138Z,12.70
2019-03-22T14:15:38.732Z,12.60
2019-03-22T14:18:07.616Z,12.50
2019-03-22T14:20:36.555Z,12.50
2019-03-22T14:23:06.269Z,12.40
2019-03-22T14:25:35.258Z,12.30
2019-03-22T14:28:05.896Z,12.30
2019-03-22T14:30:36.047Z,12.30
2019-03-22T14:33:13.004Z,12.40
2019-03-22T14:35:36.521Z,12.60
2019-03-22T14:38:05.953Z,13.00
2019-03-22T14:40:35.110Z,13.40
2019-03-22T14:43:06.028Z,13.70
2019-03-22T14:45:35.233Z,13.80
2019-03-22T14:48:04.122Z,13.70
2019-03-22T14:50:33.034Z,13.60
2019-03-22T14:53:01.917Z,13.40
2019-03-22T14:55:31.992Z,13.40
2019-03-22T14:58:06.428Z,13.30
2019-03-22T15:00:40.052Z,13.30
2019-03-22T15:03:24.587Z,13.30
2019-03-22T15:05:54.928Z,13.10
2019-03-22T15:08:24.095Z,13.00
2019-03-22T15:10:53.549Z,12.90
2019-03-22T15:13:27.101Z,12.80
2019-03-22T15:15:57.619Z,12.70
2019-03-22T15:18:34.097Z,12.70
2019-03-22T15:21:11.937Z,12.70
2019-03-22T15:23:48.218Z,12.60
2019-03-22T15:26:36.212Z,12.60
2019-03-22T15:29:26.098Z,12.50
2019-03-22T15:31:56.618Z,12.30
2019-03-22T15:34:32.544Z,12.00
2019-03-22T15:37:19.136Z,12.00
2019-03-22T15:40:03.889Z,11.90
2019-03-22T15:42:32.826Z,11.80
2019-03-22T15:45:01.795Z,11.70
2019-03-22T15:47:34.893Z,11.80
2019-03-22T15:50:01.281Z,12.00
2019-03-22T15:52:30.994Z,12.10
2019-03-22T15:54:59.879Z,12.00
2019-03-22T15:57:28.833Z,12.00
2019-03-22T15:59:57.716Z,12.00
2019-03-22T16:02:26.555Z,12.00
2019-03-22T16:04:56.960Z,12.10
2019-03-22T16:07:25.859Z,12.10
2019-03-22T16:09:54.923Z,12.20
2019-03-22T16:12:27.605Z,12.10
2019-03-22T16:14:57.745Z,12.20
2019-03-22T16:17:26.593Z,12.20
2019-03-22T16:19:55.847Z,12.00
2019-03-22T16:22:24.992Z,11.90
2019-03-22T16:24:53.876Z,11.80
2019-03-22T16:27:22.784Z,11.70
2019-03-22T16:29:51.616Z,11.60
2019-03-22T16:32:20.799Z,11.60
2019-03-22T16:34:49.798Z,11.50
2019-03-22T16:37:18.699Z,11.50
2019-03-22T16:39:51.606Z,11.50
2019-03-22T16:42:20.735Z,11.40
2019-03-22T16:44:49.692Z,11.30
2019-03-22T16:47:18.615Z,11.20
2019-03-22T16:49:47.668Z,11.20
2019-03-22T16:52:16.532Z,11.20
2019-03-22T16:54:46.966Z,11.30
2019-03-22T16:57:18.703Z,11.10
2019-03-22T16:59:47.752Z,11.00
2019-03-22T17:02:16.637Z,10.80
2019-03-22T17:04:49.451Z,10.80
2019-03-22T17:07:18.363Z,10.80
2019-03-22T17:09:47.238Z,10.70
2019-03-22T17:12:16.172Z,10.80
2019-03-22T17:14:45.236Z,10.80
2019-03-22T17:17:15.258Z,10.90
2019-03-22T17:19:44.943Z,10.90
2019-03-22T17:22:13.967Z,10.90
2019-03-22T17:24:45.033Z,10.80
2019-03-22T17:27:13.945Z,10.60
2019-03-22T17:29:42.822Z,10.40
2019-03-22T17:32:11.702Z,10.40
2019-03-22T17:34:40.624Z,10.20
2019-03-22T17:37:09.458Z,10.30
2019-03-22T17:39:38.345Z,10.30
2019-03-22T17:42:08.756Z,10.30
2019-03-22T17:44:37.621Z,10.20
2019-03-22T17:47:06.450Z,10.00
2019-03-22T17:49:35.370Z,9.90
2019-03-22T17:52:04.242Z,9.70
2019-03-22T17:54:33.159Z,9.60
2019-03-22T17:57:03.565Z,9.50
2019-03-22T17:59:32.433Z,9.60
2019-03-22T18:02:01.260Z,9.60
2019-03-22T18:04:31.770Z,9.50
2019-03-22T18:07:00.649Z,9.40
2019-03-22T18:09:29.550Z,9.20
2019-03-22T18:11:59.917Z,9.10
2019-03-22T18:14:28.810Z,8.90
2019-03-22T18:16:57.717Z,8.80
2019-03-22T18:19:26.576Z,8.70
2019-03-22T18:21:55.421Z,8.60
2019-03-22T18:24:24.334Z,8.50
2019-03-22T18:26:53.197Z,8.40
2019-03-22T18:29:22.103Z,8.30
2019-03-22T18:31:51.024Z,8.20
2019-03-22T18:34:21.968Z,8.20
2019-03-22T18:36:50.829Z,8.10
2019-03-22T18:39:19.751Z,8.00
2019-03-22T18:41:49.816Z,8.00
2019-03-22T18:44:18.644Z,7.90
2019-03-22T18:46:49.061Z,7.80
2019-03-22T18:49:21.363Z,7.80
2019-03-22T18:51:49.857Z,7.80
2019-03-22T18:54:18.809Z,7.70
2019-03-22T18:56:50.758Z,7.80
2019-03-22T18:59:19.654Z,7.80
2019-03-22T19:01:48.592Z,7.70
2019-03-22T19:04:17.475Z,7.70
2019-03-22T19:06:46.329Z,7.70
2019-03-22T19:09:17.694Z,7.60
2019-03-22T19:11:50.730Z,7.50
2019-03-22T19:14:19.646Z,7.50
2019-03-22T19:16:48.526Z,7.40
2019-03-22T19:19:17.404Z,7.30
2019-03-22T19:21:46.331Z,7.40
2019-03-22T19:24:17.992Z,7.40
2019-03-22T19:26:49.970Z,7.40
2019-03-22T19:29:18.877Z,7.40
2019-03-22T19:31:49.319Z,7.40
2019-03-22T19:34:21.268Z,7.30
2019-03-22T19:36:52.627Z,7.30
2019-03-22T19:39:27.393Z,7.40
2019-03-22T19:41:55.150Z,7.30
2019-03-22T19:44:24.009Z,7.30
2019-03-22T19:46:52.957Z,7.30
2019-03-22T19:49:21.822Z,7.20
2019-03-22T19:51:52.151Z,7.10
2019-03-22T19:54:21.298Z,7.00
2019-03-22T19:56:50.174Z,6.90
2019-03-22T19:59:24.315Z,6.90
2019-03-22T20:01:54.555Z,6.80
2019-03-22T20:04:23.386Z,6.90
2019-03-22T20:06:55.149Z,6.90
2019-03-22T20:09:25.535Z,7.00
2019-03-22T20:12:03.696Z,7.10
2019-03-22T20:14:31.879Z,7.10
2019-03-22T20:17:00.698Z,7.10
2019-03-22T20:19:31.114Z,7.10
2019-03-22T20:21:59.986Z,7.10
2019-03-22T20:24:31.783Z,7.00
2019-03-22T20:27:02.941Z,7.00
2019-03-22T20:29:31.860Z,6.90
2019-03-22T20:32:04.045Z,6.80
2019-03-22T20:34:33.248Z,6.80
2019-03-22T20:37:02.301Z,6.70
2019-03-22T20:39:31.386Z,6.70
2019-03-22T20:42:00.453Z,6.70
2019-03-22T20:44:33.756Z,6.60
2019-03-22T20:47:02.726Z,6.60
2019-03-22T20:49:31.595Z,6.60
2019-03-22T20:52:00.668Z,6.50
2019-03-22T20:54:29.550Z,6.40
2019-03-22T20:57:00.026Z,6.50
2019-03-22T20:59:30.060Z,6.40
2019-03-22T21:01:58.983Z,6.30
2019-03-22T21:04:31.143Z,6.20
2019-03-22T21:07:00.022Z,6.30
2019-03-22T21:09:28.905Z,6.30
2019-03-22T21:11:57.822Z,6.30
2019-03-22T21:14:27.734Z,6.30
2019-03-22T21:16:59.432Z,6.30
2019-03-22T21:19:37.326Z,6.20
2019-03-22T21:22:06.164Z,6.10
2019-03-22T21:24:35.168Z,6.10
2019-03-22T21:27:15.418Z,6.00
2019-03-22T21:29:44.031Z,6.00
2019-03-22T21:32:13.550Z,5.90
2019-03-22T21:34:44.125Z,5.90
2019-03-22T21:37:13.278Z,5.80
2019-03-22T21:39:44.136Z,5.70
2019-03-22T21:42:14.313Z,5.60
2019-03-22T21:44:43.302Z,5.40
2019-03-22T21:47:12.235Z,5.30
2019-03-22T21:49:45.423Z,5.30
2019-03-22T21:52:17.651Z,5.30
2019-03-22T21:54:46.266Z,5.30
2019-03-22T21:57:15.259Z,5.40
2019-03-22T21:59:44.268Z,5.40
2019-03-22T22:02:16.332Z,5.40
2019-03-22T22:04:48.184Z,5.50
2019-03-22T22:07:25.764Z,5.50
2019-03-22T22:09:54.760Z,5.40
2019-03-22T22:12:26.953Z,5.40
2019-03-22T22:15:05.289Z,5.50
2019-03-22T22:17:34.384Z,5.50
2019-03-22T22:20:08.332Z,5.40
2019-03-22T22:22:38.709Z,5.30
2019-03-22T22:25:08.364Z,5.20
2019-03-22T22:27:39.813Z,5.20
2019-03-22T22:30:14.856Z,5.30
2019-03-22T22:32:43.928Z,5.20
2019-03-22T22:35:13.118Z,5.20
2019-03-22T22:37:44.144Z,5.10
2019-03-22T22:40:18.723Z,5.10
2019-03-22T22:42:50.696Z,5.10
2019-03-22T22:45:19.873Z,5.20
2019-03-22T22:47:52.250Z,5.30
2019-03-22T22:50:21.169Z,5.30
2019-03-22T22:52:50.079Z,5.30
2019-03-22T22:55:18.995Z,5.40
2019-03-22T22:57:49.908Z,5.40
2019-03-22T23:00:18.938Z,5.30
2019-03-22T23:02:49.779Z,5.30
2019-03-22T23:05:21.398Z,5.30
2019-03-22T23:07:50.324Z,5.20
2019-03-22T23:10:19.307Z,5.10
2019-03-22T23:12:50.148Z,4.90
2019-03-22T23:15:21.576Z,4.90
2019-03-22T23:17:50.552Z,4.80
2019-03-22T23:20:19.448Z,4.70
2019-03-22T23:22:50.045Z,4.60
2019-03-22T23:25:18.950Z,4.50
2019-03-22T23:27:47.882Z,4.40
2019-03-22T23:30:17.003Z,4.40
2019-03-22T23:32:45.930Z,4.40
2019-03-22T23:35:14.952Z,4.30
2019-03-22T23:37:45.425Z,4.30
2019-03-22T23:40:14.282Z,4.20
2019-03-22T23:42:43.232Z,4.00
2019-03-22T23:45:12.367Z,3.80
2019-03-22T23:47:44.021Z,3.40
2019-03-22T23:50:13.076Z,3.30
2019-03-22T23:52:41.934Z,3.10
2019-03-22T23:55:10.917Z,3.00
2019-03-22T23:57:44.285Z,2.90
